createdAt,value
2018-09-22T00:00:18.127Z,0.70
2018-09-22T00:02:51.730Z,0.50
2018-09-22T00:05:25.340Z,0.60
2018-09-22T00:07:58.918Z,0.70
2018-09-22T00:10:32.633Z,0.70
2018-09-22T00:13:06.223Z,0.70
2018-09-22T00:15:39.831Z,0.80
2018-09-22T00:18:13.443Z,0.80
2018-09-22T00:20:46.983Z,0.70
2018-09-22T00:23:20.568Z,0.80
2018-09-22T00:25:54.170Z,0.50
2018-09-22T00:28:27.818Z,0.83
2018-09-22T00:31:01.352Z,0.70
2018-09-22T00:33:34.970Z,0.90
2018-09-22T00:36:08.541Z,1.10
2018-09-22T00:38:42.130Z,1.17
2018-09-22T00:41:15.711Z,1.13
2018-09-22T00:43:49.289Z,1.23
2018-09-22T00:46:22.852Z,1.57
2018-09-22T00:48:56.430Z,1.30
2018-09-22T00:51:30.104Z,1.30
2018-09-22T00:54:03.657Z,1.30
2018-09-22T00:56:37.229Z,1.10
2018-09-22T00:59:10.797Z,0.73
2018-09-22T01:01:44.349Z,1.47
2018-09-22T01:04:17.924Z,1.20
2018-09-22T01:06:51.471Z,1.20
2018-09-22T01:09:25.057Z,1.20
2018-09-22T01:11:58.643Z,1.23
2018-09-22T01:14:32.268Z,1.23
2018-09-22T01:17:05.886Z,1.20
2018-09-22T01:19:39.438Z,1.00
2018-09-22T01:22:13.032Z,1.10
2018-09-22T01:24:46.617Z,1.10
2018-09-22T01:27:20.229Z,1.00
2018-09-22T01:29:53.796Z,1.00
2018-09-22T01:32:27.472Z,1.10
2018-09-22T01:35:01.052Z,0.98
2018-09-22T01:37:34.650Z,1.10
2018-09-22T01:40:08.267Z,1.20
2018-09-22T01:42:41.863Z,1.10
2018-09-22T01:45:15.500Z,1.20
2018-09-22T01:47:49.097Z,0.93
2018-09-22T01:50:22.677Z,1.03
2018-09-22T01:52:56.269Z,0.97
2018-09-22T01:55:29.839Z,1.15
2018-09-22T01:58:03.456Z,1.03
2018-09-22T02:00:37.043Z,1.60
2018-09-22T02:03:10.629Z,1.27
2018-09-22T02:05:44.220Z,1.17
2018-09-22T02:08:17.825Z,1.40
2018-09-22T02:10:51.374Z,1.30
2018-09-22T02:13:24.983Z,1.47
2018-09-22T02:15:58.613Z,1.63
2018-09-22T02:18:32.186Z,1.50
2018-09-22T02:21:06.048Z,1.42
2018-09-22T02:23:39.622Z,1.40
2018-09-22T02:26:13.155Z,1.60
2018-09-22T02:28:46.720Z,1.60
2018-09-22T02:31:20.321Z,1.67
2018-09-22T02:33:53.875Z,1.50
2018-09-22T02:36:27.556Z,2.10
2018-09-22T02:39:01.157Z,1.72
2018-09-22T02:41:34.691Z,1.67
2018-09-22T02:44:08.277Z,1.40
2018-09-22T02:46:41.829Z,1.60
2018-09-22T02:49:15.401Z,1.70
2018-09-22T02:51:48.947Z,1.57
2018-09-22T02:54:22.509Z,1.80
2018-09-22T02:56:56.050Z,1.72
2018-09-22T02:59:29.609Z,2.10
2018-09-22T03:02:03.193Z,1.45
2018-09-22T03:04:36.746Z,1.63
2018-09-22T03:07:10.280Z,1.60
2018-09-22T03:09:43.846Z,2.10
2018-09-22T03:12:17.445Z,1.40
2018-09-22T03:14:51.021Z,1.67
2018-09-22T03:17:24.590Z,1.80
2018-09-22T03:19:58.191Z,1.70
2018-09-22T03:22:31.847Z,1.52
2018-09-22T03:25:05.547Z,1.53
2018-09-22T03:27:39.116Z,1.60
2018-09-22T03:30:12.738Z,1.42
2018-09-22T03:32:46.299Z,1.60
2018-09-22T03:35:19.952Z,1.40
2018-09-22T03:37:53.521Z,1.50
2018-09-22T03:40:27.134Z,1.33
2018-09-22T03:43:00.718Z,1.47
2018-09-22T03:45:34.325Z,1.50
2018-09-22T03:48:07.935Z,1.30
2018-09-22T03:50:41.673Z,1.00
2018-09-22T03:53:15.253Z,1.25
2018-09-22T03:55:48.886Z,1.57
2018-09-22T03:58:22.440Z,1.17
2018-09-22T04:00:56.041Z,1.30
2018-09-22T04:03:29.863Z,1.20
2018-09-22T04:06:03.470Z,1.17
2018-09-22T04:08:37.065Z,1.40
2018-09-22T04:11:10.686Z,1.70
2018-09-22T04:13:44.329Z,1.30
2018-09-22T04:16:17.983Z,1.60
2018-09-22T04:18:51.593Z,1.53
2018-09-22T04:21:25.180Z,1.60
2018-09-22T04:23:58.781Z,1.50
2018-09-22T04:26:32.384Z,1.97
2018-09-22T04:29:06.070Z,1.60
2018-09-22T04:31:39.639Z,1.90
2018-09-22T04:34:13.299Z,1.70
2018-09-22T04:36:46.881Z,1.63
2018-09-22T04:39:20.513Z,1.87
2018-09-22T04:41:54.187Z,1.40
2018-09-22T04:44:27.782Z,1.73
2018-09-22T04:47:01.332Z,2.00
2018-09-22T04:49:35.016Z,1.70
2018-09-22T04:52:08.684Z,2.00
2018-09-22T04:54:42.287Z,1.70
2018-09-22T04:57:15.845Z,1.93
2018-09-22T04:59:49.421Z,2.00
2018-09-22T05:02:23.166Z,1.70
2018-09-22T05:04:56.754Z,2.67
2018-09-22T05:07:30.329Z,1.80
2018-09-22T05:10:04.002Z,2.57
2018-09-22T05:12:37.615Z,2.23
2018-09-22T05:15:11.225Z,2.10
2018-09-22T05:17:44.803Z,2.43
2018-09-22T05:20:18.401Z,2.20
2018-09-22T05:22:52.064Z,2.37
2018-09-22T05:25:25.763Z,2.27
2018-09-22T05:27:59.397Z,2.30
2018-09-22T05:30:33.036Z,2.17
2018-09-22T05:33:06.612Z,2.90
2018-09-22T05:35:40.144Z,2.45
2018-09-22T05:38:13.721Z,2.37
2018-09-22T05:40:47.331Z,2.90
2018-09-22T05:43:20.915Z,2.85
2018-09-22T05:45:54.624Z,2.87
2018-09-22T05:48:28.235Z,2.73
2018-09-22T05:51:01.844Z,2.93
2018-09-22T05:53:35.442Z,2.17
2018-09-22T05:56:09.051Z,2.57
2018-09-22T05:58:42.632Z,2.87
2018-09-22T06:01:16.271Z,2.50
2018-09-22T06:03:49.969Z,2.25
2018-09-22T06:06:23.532Z,2.52
2018-09-22T06:08:57.114Z,2.17
2018-09-22T06:11:30.771Z,2.17
2018-09-22T06:14:04.414Z,2.70
2018-09-22T06:16:38.018Z,2.07
2018-09-22T06:19:11.579Z,2.10
2018-09-22T06:21:45.172Z,1.87
2018-09-22T06:24:18.742Z,1.80
2018-09-22T06:26:52.513Z,1.90
2018-09-22T06:29:26.085Z,2.20
2018-09-22T06:31:59.751Z,1.75
2018-09-22T06:34:33.318Z,2.10
2018-09-22T06:37:06.989Z,2.40
2018-09-22T06:39:40.590Z,2.02
2018-09-22T06:42:14.152Z,2.30
2018-09-22T06:44:47.737Z,2.10
2018-09-22T06:47:21.353Z,2.22
2018-09-22T06:49:54.948Z,2.00
2018-09-22T06:52:28.558Z,2.05
2018-09-22T06:55:02.227Z,2.10
2018-09-22T06:57:35.852Z,1.92
2018-09-22T07:00:09.429Z,2.17
2018-09-22T07:02:43.023Z,2.15
2018-09-22T07:05:16.612Z,1.87
2018-09-22T07:07:50.477Z,1.77
2018-09-22T07:10:24.062Z,1.80
2018-09-22T07:12:57.679Z,2.10
2018-09-22T07:15:31.259Z,1.62
2018-09-22T07:18:04.903Z,2.10
2018-09-22T07:20:38.568Z,1.90
2018-09-22T07:23:15.310Z,1.55
2018-09-22T07:25:48.988Z,1.87
2018-09-22T07:28:22.582Z,1.87
2018-09-22T07:30:56.168Z,2.22
2018-09-22T07:33:29.780Z,2.25
2018-09-22T07:36:03.404Z,1.70
2018-09-22T07:38:37.021Z,1.75
2018-09-22T07:41:10.928Z,1.62
2018-09-22T07:43:44.609Z,1.92
2018-09-22T07:46:18.229Z,2.12
2018-09-22T07:48:51.808Z,2.50
2018-09-22T07:51:25.433Z,1.85
2018-09-22T07:53:58.998Z,1.98
2018-09-22T07:56:32.612Z,1.67
2018-09-22T07:59:06.306Z,1.92
2018-09-22T08:01:39.963Z,2.17
2018-09-22T08:04:13.577Z,2.35
2018-09-22T08:06:47.114Z,2.20
2018-09-22T08:09:20.694Z,2.10
2018-09-22T08:11:54.441Z,1.82
2018-09-22T08:14:28.287Z,1.95
2018-09-22T08:17:01.909Z,2.40
2018-09-22T08:19:35.549Z,2.50
2018-09-22T08:22:10.938Z,2.30
2018-09-22T08:24:44.561Z,1.87
2018-09-22T08:27:18.157Z,2.30
2018-09-22T08:29:51.873Z,2.05
2018-09-22T08:32:25.497Z,2.10
2018-09-22T08:34:59.337Z,2.10
2018-09-22T08:37:32.927Z,2.45
2018-09-22T08:40:06.708Z,2.35
2018-09-22T08:42:40.325Z,2.40
2018-09-22T08:45:13.909Z,2.12
2018-09-22T08:47:47.505Z,2.30
2018-09-22T08:50:21.685Z,2.15
2018-09-22T08:52:55.508Z,2.20
2018-09-22T08:55:29.108Z,2.20
2018-09-22T08:58:02.814Z,2.52
2018-09-22T09:00:36.383Z,2.17
2018-09-22T09:03:10.068Z,2.50
2018-09-22T09:05:44.733Z,2.87
2018-09-22T09:08:19.470Z,2.30
2018-09-22T09:10:59.893Z,2.50
2018-09-22T09:13:33.533Z,2.12
2018-09-22T09:16:07.135Z,2.65
2018-09-22T09:18:40.789Z,2.58
2018-09-22T09:21:14.422Z,2.47
2018-09-22T09:23:47.975Z,2.40
2018-09-22T09:26:21.568Z,2.77
2018-09-22T09:28:55.122Z,2.30
2018-09-22T09:31:28.715Z,3.80
2018-09-22T09:34:02.287Z,3.92
2018-09-22T09:36:35.856Z,2.47
2018-09-22T09:39:09.443Z,3.02
2018-09-22T09:41:43.018Z,3.00
2018-09-22T09:44:16.602Z,2.87
2018-09-22T09:46:50.199Z,2.15
2018-09-22T09:49:23.785Z,2.87
2018-09-22T09:51:57.353Z,3.35
2018-09-22T09:54:30.972Z,3.00
2018-09-22T09:57:04.841Z,2.60
2018-09-22T09:59:39.041Z,2.30
2018-09-22T10:02:12.583Z,2.30
2018-09-22T10:04:47.014Z,2.37
2018-09-22T10:07:20.558Z,1.98
2018-09-22T10:09:54.339Z,2.62
2018-09-22T10:12:28.003Z,2.27
2018-09-22T10:15:01.553Z,2.33
2018-09-22T10:17:35.350Z,2.10
2018-09-22T10:20:09.204Z,1.98
2018-09-22T10:22:43.026Z,2.10
2018-09-22T10:25:16.633Z,2.35
2018-09-22T10:27:50.406Z,1.82
2018-09-22T10:30:24.006Z,2.52
2018-09-22T10:32:57.833Z,1.60
2018-09-22T10:35:31.441Z,1.80
2018-09-22T10:38:05.057Z,2.50
2018-09-22T10:40:38.751Z,2.60
2018-09-22T10:43:12.342Z,2.17
2018-09-22T10:45:45.915Z,2.17
2018-09-22T10:48:19.721Z,2.40
2018-09-22T10:50:53.322Z,2.15
2018-09-22T10:53:27.016Z,1.90
2018-09-22T10:56:00.844Z,2.20
2018-09-22T10:58:34.632Z,1.92
2018-09-22T11:01:08.624Z,2.10
2018-09-22T11:03:42.213Z,1.90
2018-09-22T11:06:15.985Z,1.95
2018-09-22T11:08:49.603Z,2.05
2018-09-22T11:11:23.180Z,1.75
2018-09-22T11:13:56.795Z,1.75
2018-09-22T11:16:30.340Z,1.65
2018-09-22T11:19:03.931Z,2.00
2018-09-22T11:21:37.483Z,1.62
2018-09-22T11:24:11.051Z,1.98
2018-09-22T11:26:44.657Z,1.90
2018-09-22T11:29:18.223Z,1.95
2018-09-22T11:31:51.753Z,1.80
2018-09-22T11:34:25.317Z,1.80
2018-09-22T11:36:58.851Z,2.05
2018-09-22T11:39:33.243Z,2.12
2018-09-22T11:42:06.851Z,2.75
2018-09-22T11:44:40.525Z,2.27
2018-09-22T11:47:14.277Z,1.98
2018-09-22T11:49:48.058Z,1.72
2018-09-22T11:52:22.044Z,1.92
2018-09-22T11:54:55.760Z,1.95
2018-09-22T11:57:29.610Z,2.08
2018-09-22T12:00:03.498Z,1.92
2018-09-22T12:02:37.230Z,2.10
2018-09-22T12:05:10.779Z,1.95
2018-09-22T12:07:44.347Z,2.30
2018-09-22T12:10:17.927Z,2.05
2018-09-22T12:12:51.755Z,2.30
2018-09-22T12:15:25.352Z,1.65
2018-09-22T12:17:59.708Z,1.98
2018-09-22T12:20:33.278Z,2.42
2018-09-22T12:23:06.877Z,1.77
2018-09-22T12:25:40.433Z,1.80
2018-09-22T12:28:15.400Z,2.02
2018-09-22T12:30:49.084Z,1.77
2018-09-22T12:33:22.666Z,2.50
2018-09-22T12:35:56.224Z,2.27
2018-09-22T12:38:29.792Z,2.02
2018-09-22T12:41:03.402Z,1.80
2018-09-22T12:43:36.954Z,2.10
2018-09-22T12:46:10.677Z,1.87
2018-09-22T12:48:44.203Z,2.02
2018-09-22T12:51:17.775Z,1.92
2018-09-22T12:53:51.321Z,1.70
2018-09-22T12:56:24.884Z,2.05
2018-09-22T12:58:58.481Z,1.95
2018-09-22T13:01:32.164Z,1.60
2018-09-22T13:04:05.785Z,2.30
2018-09-22T13:06:39.487Z,2.47
2018-09-22T13:09:13.033Z,1.92
2018-09-22T13:11:46.742Z,2.30
2018-09-22T13:14:20.464Z,2.33
2018-09-22T13:16:54.141Z,2.50
2018-09-22T13:19:27.666Z,2.02
2018-09-22T13:22:01.272Z,2.22
2018-09-22T13:24:34.829Z,1.82
2018-09-22T13:27:08.412Z,2.02
2018-09-22T13:29:42.048Z,1.95
2018-09-22T13:32:15.620Z,1.80
2018-09-22T13:34:49.188Z,2.12
2018-09-22T13:37:22.745Z,2.20
2018-09-22T13:39:56.335Z,2.70
2018-09-22T13:42:29.841Z,2.17
2018-09-22T13:45:03.478Z,2.20
2018-09-22T13:47:36.985Z,2.42
2018-09-22T13:50:10.551Z,2.02
2018-09-22T13:52:44.072Z,2.40
2018-09-22T13:55:17.630Z,2.20
2018-09-22T13:57:51.167Z,1.90
2018-09-22T14:00:24.741Z,1.80
2018-09-22T14:02:58.358Z,2.22
2018-09-22T14:05:31.903Z,2.02
2018-09-22T14:08:05.446Z,2.00
2018-09-22T14:10:39.133Z,2.00
2018-09-22T14:13:12.663Z,1.80
2018-09-22T14:15:46.238Z,2.05
2018-09-22T14:18:19.811Z,1.80
2018-09-22T14:20:53.396Z,1.80
2018-09-22T14:23:26.904Z,1.80
2018-09-22T14:26:00.475Z,1.87
2018-09-22T14:28:34.002Z,1.85
2018-09-22T14:31:07.604Z,1.98
2018-09-22T14:33:41.133Z,2.15
2018-09-22T14:36:15.187Z,2.17
2018-09-22T14:38:48.773Z,1.62
2018-09-22T14:41:22.519Z,1.60
2018-09-22T14:43:56.143Z,2.10
2018-09-22T14:46:29.798Z,1.98
2018-09-22T14:49:03.351Z,1.60
2018-09-22T14:51:37.012Z,1.80
2018-09-22T14:54:10.565Z,2.10
2018-09-22T14:56:44.219Z,1.70
2018-09-22T14:59:17.796Z,1.85
2018-09-22T15:01:51.393Z,2.22
2018-09-22T15:04:25.046Z,2.10
2018-09-22T15:06:58.724Z,1.75
2018-09-22T15:09:32.254Z,1.55
2018-09-22T15:12:05.940Z,1.62
2018-09-22T15:14:39.483Z,1.95
2018-09-22T15:17:13.057Z,1.90
2018-09-22T15:19:46.625Z,1.65
2018-09-22T15:22:20.204Z,1.72
2018-09-22T15:24:53.776Z,2.12
2018-09-22T15:27:28.265Z,2.37
2018-09-22T15:30:01.838Z,1.57
2018-09-22T15:32:35.510Z,2.02
2018-09-22T15:35:09.600Z,1.55
2018-09-22T15:37:43.205Z,1.80
2018-09-22T15:40:16.751Z,1.82
2018-09-22T15:42:50.400Z,1.50
2018-09-22T15:45:24.138Z,2.00
2018-09-22T15:47:57.780Z,1.70
2018-09-22T15:50:31.574Z,1.90
2018-09-22T15:53:05.433Z,1.42
2018-09-22T15:55:40.107Z,1.87
2018-09-22T15:58:13.770Z,1.35
2018-09-22T16:00:47.370Z,1.65
2018-09-22T16:03:20.998Z,1.50
2018-09-22T16:05:54.962Z,1.45
2018-09-22T16:08:28.681Z,1.70
2018-09-22T16:11:02.237Z,1.60
2018-09-22T16:13:37.309Z,1.20
2018-09-22T16:16:10.915Z,1.82
2018-09-22T16:18:44.528Z,1.60
2018-09-22T16:21:18.718Z,1.40
2018-09-22T16:23:52.503Z,1.32
2018-09-22T16:26:26.451Z,1.25
2018-09-22T16:29:00.016Z,1.32
2018-09-22T16:31:33.549Z,1.10
2018-09-22T16:34:07.381Z,1.12
2018-09-22T16:36:40.893Z,1.32
2018-09-22T16:39:15.499Z,1.30
2018-09-22T16:41:49.036Z,1.22
2018-09-22T16:44:22.581Z,2.37
2018-09-22T16:46:56.176Z,1.60
2018-09-22T16:49:30.939Z,1.15
2018-09-22T16:52:04.985Z,1.37
2018-09-22T16:54:38.681Z,1.75
2018-09-22T16:57:12.811Z,1.25
2018-09-22T16:59:46.369Z,1.75
2018-09-22T17:02:20.522Z,1.60
2018-09-22T17:04:54.055Z,1.82
2018-09-22T17:07:27.585Z,1.45
2018-09-22T17:10:01.125Z,2.05
2018-09-22T17:12:35.113Z,1.30
2018-09-22T17:15:09.960Z,1.32
2018-09-22T17:17:43.710Z,1.12
2018-09-22T17:20:17.748Z,1.47
2018-09-22T17:22:51.273Z,1.10
2018-09-22T17:25:24.786Z,1.60
2018-09-22T17:27:59.104Z,1.50
2018-09-22T17:30:32.613Z,1.60
2018-09-22T17:33:06.211Z,1.47
2018-09-22T17:35:39.850Z,1.65
2018-09-22T17:38:13.571Z,1.55
2018-09-22T17:40:47.107Z,1.07
2018-09-22T17:43:21.127Z,1.52
2018-09-22T17:45:54.646Z,1.40
2018-09-22T17:48:28.188Z,1.25
2018-09-22T17:51:01.749Z,1.55
2018-09-22T17:53:36.191Z,1.22
2018-09-22T17:56:09.724Z,1.60
2018-09-22T17:58:43.265Z,1.30
2018-09-22T18:01:16.902Z,1.62
2018-09-22T18:03:50.819Z,3.20
2018-09-22T18:06:24.337Z,1.87
2018-09-22T18:08:58.746Z,1.98
2018-09-22T18:11:32.430Z,22.75
2018-09-22T18:14:06.359Z,12.98
2018-09-22T18:16:39.950Z,5.05
2018-09-22T18:19:14.444Z,1.07
2018-09-22T18:21:48.048Z,1.50
2018-09-22T18:24:21.635Z,1.30
2018-09-22T18:26:55.206Z,1.10
2018-09-22T18:29:28.785Z,1.37
2018-09-22T18:32:02.328Z,1.10
2018-09-22T18:34:35.973Z,1.30
2018-09-22T18:37:10.602Z,1.52
2018-09-22T18:39:44.328Z,1.50
2018-09-22T18:42:19.210Z,1.17
2018-09-22T18:44:56.957Z,1.40
2018-09-22T18:47:30.535Z,1.37
2018-09-22T18:50:04.113Z,1.27
2018-09-22T18:52:37.669Z,1.35
2018-09-22T18:55:11.226Z,1.15
2018-09-22T18:57:44.802Z,0.98
2018-09-22T19:00:18.391Z,1.05
2018-09-22T19:02:52.353Z,1.00
2018-09-22T19:05:27.666Z,1.17
2018-09-22T19:08:01.192Z,1.17
2018-09-22T19:10:35.284Z,1.17
2018-09-22T19:13:10.565Z,1.30
2018-09-22T19:15:48.079Z,1.25
2018-09-22T19:18:27.496Z,1.45
2018-09-22T19:21:06.880Z,1.40
2018-09-22T19:23:43.479Z,1.40
2018-09-22T19:26:28.615Z,1.12
2018-09-22T19:29:14.929Z,1.02
2018-09-22T19:31:53.043Z,1.20
2018-09-22T19:34:33.109Z,1.15
2018-09-22T19:37:12.318Z,1.00
2018-09-22T19:39:52.516Z,1.02
2018-09-22T19:42:39.203Z,0.90
2018-09-22T19:45:19.303Z,1.40
2018-09-22T19:47:57.598Z,1.30
2018-09-22T19:50:35.263Z,1.00
2018-09-22T19:53:08.826Z,1.45
2018-09-22T19:55:42.394Z,1.00
2018-09-22T19:58:15.946Z,0.90
2018-09-22T20:00:49.600Z,1.10
2018-09-22T20:03:23.176Z,0.93
2018-09-22T20:05:56.779Z,1.12
2018-09-22T20:08:31.528Z,1.02
2018-09-22T20:11:05.170Z,1.10
2018-09-22T20:13:38.758Z,0.98
2018-09-22T20:16:12.363Z,0.80
2018-09-22T20:18:45.943Z,1.15
2018-09-22T20:21:19.602Z,1.35
2018-09-22T20:23:53.233Z,1.15
2018-09-22T20:26:26.769Z,0.98
2018-09-22T20:29:00.307Z,1.00
2018-09-22T20:31:33.911Z,1.22
2018-09-22T20:34:07.534Z,1.75
2018-09-22T20:36:41.118Z,2.30
2018-09-22T20:39:14.729Z,1.55
2018-09-22T20:41:48.314Z,2.20
2018-09-22T20:44:21.882Z,3.05
2018-09-22T20:46:55.440Z,2.37
2018-09-22T20:49:29.009Z,2.52
2018-09-22T20:52:02.591Z,2.00
2018-09-22T20:54:36.156Z,2.00
2018-09-22T20:57:09.731Z,2.20
2018-09-22T20:59:43.266Z,3.07
2018-09-22T21:02:16.869Z,2.20
2018-09-22T21:04:50.590Z,2.30
2018-09-22T21:07:24.214Z,2.85
2018-09-22T21:09:57.905Z,2.20
2018-09-22T21:12:31.746Z,3.25
2018-09-22T21:15:05.368Z,3.00
2018-09-22T21:17:39.000Z,2.37
2018-09-22T21:20:12.630Z,3.42
2018-09-22T21:22:46.231Z,2.58
2018-09-22T21:25:19.845Z,2.30
2018-09-22T21:27:53.475Z,3.00
2018-09-22T21:30:27.027Z,3.17
2018-09-22T21:33:00.629Z,2.50
2018-09-22T21:35:34.269Z,2.95
2018-09-22T21:38:08.127Z,3.02
2018-09-22T21:40:41.832Z,2.67
2018-09-22T21:43:15.442Z,3.30
2018-09-22T21:45:49.072Z,4.50
2018-09-22T21:48:22.762Z,3.80
2018-09-22T21:50:56.464Z,2.92
2018-09-22T21:53:31.103Z,3.40
2018-09-22T21:56:04.697Z,3.27
2018-09-22T21:58:38.296Z,2.60
2018-09-22T22:01:17.327Z,2.40
2018-09-22T22:03:51.525Z,2.85
2018-09-22T22:06:25.123Z,3.00
2018-09-22T22:08:58.763Z,2.33
2018-09-22T22:11:33.051Z,2.55
2018-09-22T22:14:06.905Z,2.57
2018-09-22T22:16:40.941Z,3.87
2018-09-22T22:19:14.473Z,1.90
2018-09-22T22:21:48.073Z,2.80
2018-09-22T22:24:21.679Z,3.03
2018-09-22T22:26:55.345Z,3.62
2018-09-22T22:29:28.913Z,2.17
2018-09-22T22:32:02.549Z,2.50
2018-09-22T22:34:36.123Z,2.53
2018-09-22T22:37:09.702Z,2.75
2018-09-22T22:39:43.271Z,3.17
2018-09-22T22:42:16.921Z,2.17
2018-09-22T22:44:50.499Z,2.27
2018-09-22T22:47:24.100Z,2.20
2018-09-22T22:49:57.649Z,4.30
2018-09-22T22:52:31.291Z,3.30
2018-09-22T22:55:04.930Z,5.27
2018-09-22T22:57:38.522Z,5.90
2018-09-22T23:00:12.131Z,4.17
2018-09-22T23:02:45.756Z,3.00
2018-09-22T23:05:19.322Z,3.10
2018-09-22T23:07:52.884Z,2.62
2018-09-22T23:10:26.513Z,3.73
2018-09-22T23:13:02.210Z,2.37
2018-09-22T23:15:35.793Z,2.90
2018-09-22T23:18:09.500Z,2.73
2018-09-22T23:20:43.071Z,2.53
2018-09-22T23:23:16.748Z,3.20
2018-09-22T23:25:50.296Z,2.77
2018-09-22T23:28:23.914Z,3.13
2018-09-22T23:30:58.460Z,4.30
2018-09-22T23:33:32.020Z,3.60
2018-09-22T23:36:05.667Z,3.58
2018-09-22T23:38:39.233Z,4.35
2018-09-22T23:41:12.814Z,4.87
2018-09-22T23:43:46.534Z,4.22
2018-09-22T23:46:20.112Z,4.83
2018-09-22T23:48:53.670Z,5.85
2018-09-22T23:51:27.403Z,5.37
2018-09-22T23:54:00.969Z,5.13
2018-09-22T23:56:34.514Z,4.90
2018-09-22T23:59:08.105Z,5.20
